KSGH/SGH METAR and TAF weather

Enter ICAO airport designator
Station Type Date Time Source
KSGH METAR 2019/07/17 12:56 UTC NOAA

KSGH 171256Z AUTO 20010G14KT 6SM -RA BR OVC006 22/22 A2992 RMK AO2 RAE06B28 CIG 003V009 SLP127 P0001 T02220222


Station Type Date Time Source
KSGH Decoded METAR 2019/07/17 12:56 UTC NOAA

Springfield, Springfield-Beckley Municipal Airport, OH, United States (KSGH) 39-50-25N 083-50-24W
Jul 17, 2019 - 08:56 AM EDT / 2019.07.17 1256 UTC
Wind: from the SSW (200 degrees) at 12 MPH (10 KT) gusting to 16 MPH (14 KT):0
Visibility: 6 mile(s):0
Sky conditions: overcast
Weather: light rain; mist
Precipitation last hour: 0.01 inches
Temperature: 72.0 F (22.2 C)
Dew Point: 72.0 F (22.2 C)
Relative Humidity: 100%
Pressure (altimeter): 29.92 in. Hg (1013 hPa)
ob: KSGH 171256Z AUTO 20010G14KT 6SM -RA BR OVC006 22/22 A2992 RMK AO2 RAE06B28 CIG 003V009 SLP127 P0001 T02220222
cycle: 13

Station Type Date Time Source
KSGH TAF UTC NOAA

Error!

Example: see airport list